sensor_id;sensor_type;location;lat;lon;timestamp;P1;durP1;ratioP1;P2;durP2;ratioP2
76962;SDS011;65902;51.452;7.198;2023-05-10T00:00:20;8.52;;;4.82;;
76962;SDS011;65902;51.452;7.198;2023-05-10T00:01:22;6.75;;;4.70;;
76962;SDS011;65902;51.452;7.198;2023-05-10T00:02:23;7.20;;;5.13;;
76962;SDS011;65902;51.452;7.198;2023-05-10T00:03:24;6.95;;;4.65;;
76962;SDS011;65902;51.452;7.198;2023-05-10T00:04:25;6.57;;;5.32;;
76962;SDS011;65902;51.452;7.198;2023-05-10T00:05:27;6.95;;;5.47;;
76962;SDS011;65902;51.452;7.198;2023-05-10T00:06:28;6.65;;;4.43;;
76962;SDS011;65902;51.452;7.198;2023-05-10T00:07:28;6.95;;;4.80;;
76962;SDS011;65902;51.452;7.198;2023-05-10T00:08:29;6.88;;;4.60;;
76962;SDS011;65902;51.452;7.198;2023-05-10T00:09:29;7.60;;;4.63;;
76962;SDS011;65902;51.452;7.198;2023-05-10T00:10:30;7.00;;;4.45;;
76962;SDS011;65902;51.452;7.198;2023-05-10T00:11:30;7.43;;;4.82;;
76962;SDS011;65902;51.452;7.198;2023-05-10T00:12:31;6.70;;;4.72;;
76962;SDS011;65902;51.452;7.198;2023-05-10T00:13:32;6.82;;;4.63;;
76962;SDS011;65902;51.452;7.198;2023-05-10T00:14:32;7.15;;;4.97;;
76962;SDS011;65902;51.452;7.198;2023-05-10T00:15:33;6.72;;;5.25;;
76962;SDS011;65902;51.452;7.198;2023-05-10T00:16:34;7.50;;;4.82;;
76962;SDS011;65902;51.452;7.198;2023-05-10T00:17:35;7.97;;;4.82;;
76962;SDS011;65902;51.452;7.198;2023-05-10T00:18:35;7.20;;;5.20;;
76962;SDS011;65902;51.452;7.198;2023-05-10T00:19:36;6.95;;;5.80;;
76962;SDS011;65902;51.452;7.198;2023-05-10T00:20:36;6.90;;;4.80;;
76962;SDS011;65902;51.452;7.198;2023-05-10T00:21:37;7.05;;;5.20;;
76962;SDS011;65902;51.452;7.198;2023-05-10T00:22:37;7.35;;;5.07;;
76962;SDS011;65902;51.452;7.198;2023-05-10T00:23:38;7.70;;;5.32;;
76962;SDS011;65902;51.452;7.198;2023-05-10T00:24:38;6.85;;;5.20;;
76962;SDS011;65902;51.452;7.198;2023-05-10T00:25:39;7.28;;;4.78;;
76962;SDS011;65902;51.452;7.198;2023-05-10T00:26:39;7.30;;;5.03;;
76962;SDS011;65902;51.452;7.198;2023-05-10T00:27:41;8.45;;;5.18;;
76962;SDS011;65902;51.452;7.198;2023-05-10T00:28:41;7.63;;;4.78;;
76962;SDS011;65902;51.452;7.198;2023-05-10T00:29:42;7.90;;;5.20;;
76962;SDS011;65902;51.452;7.198;2023-05-10T00:30:42;7.10;;;5.25;;
76962;SDS011;65902;51.452;7.198;2023-05-10T00:31:43;8.50;;;5.15;;
76962;SDS011;65902;51.452;7.198;2023-05-10T00:32:44;7.72;;;5.32;;
76962;SDS011;65902;51.452;7.198;2023-05-10T00:33:45;8.15;;;5.32;;
76962;SDS011;65902;51.452;7.198;2023-05-10T00:34:45;7.72;;;5.55;;
76962;SDS011;65902;51.452;7.198;2023-05-10T00:35:45;8.02;;;7.00;;
76962;SDS011;65902;51.452;7.198;2023-05-10T00:36:46;8.18;;;5.32;;
76962;SDS011;65902;51.452;7.198;2023-05-10T00:37:46;8.55;;;6.15;;
76962;SDS011;65902;51.452;7.198;2023-05-10T00:38:47;9.30;;;5.95;;
76962;SDS011;65902;51.452;7.198;2023-05-10T00:39:48;7.93;;;5.55;;
76962;SDS011;65902;51.452;7.198;2023-05-10T00:40:50;7.93;;;6.30;;
76962;SDS011;65902;51.452;7.198;2023-05-10T00:41:51;8.90;;;5.80;;
76962;SDS011;65902;51.452;7.198;2023-05-10T00:42:51;10.27;;;6.43;;
76962;SDS011;65902;51.452;7.198;2023-05-10T00:43:54;9.25;;;7.07;;
76962;SDS011;65902;51.452;7.198;2023-05-10T00:44:55;9.20;;;5.78;;
76962;SDS011;65902;51.452;7.198;2023-05-10T00:45:58;9.02;;;6.00;;
76962;SDS011;65902;51.452;7.198;2023-05-10T00:46:59;9.27;;;6.60;;
76962;SDS011;65902;51.452;7.198;2023-05-10T00:48:01;9.20;;;5.97;;
76962;SDS011;65902;51.452;7.198;2023-05-10T00:49:02;9.32;;;6.50;;
76962;SDS011;65902;51.452;7.198;2023-05-10T00:50:05;9.02;;;6.28;;
76962;SDS011;65902;51.452;7.198;2023-05-10T00:51:06;9.93;;;5.95;;
76962;SDS011;65902;51.452;7.198;2023-05-10T00:52:07;9.20;;;5.90;;
76962;SDS011;65902;51.452;7.198;2023-05-10T00:53:08;9.00;;;6.20;;
76962;SDS011;65902;51.452;7.198;2023-05-10T00:54:10;9.57;;;6.75;;
76962;SDS011;65902;51.452;7.198;2023-05-10T00:55:11;10.93;;;7.20;;
76962;SDS011;65902;51.452;7.198;2023-05-10T00:56:12;9.80;;;6.70;;
76962;SDS011;65902;51.452;7.198;2023-05-10T00:57:13;10.65;;;7.32;;
76962;SDS011;65902;51.452;7.198;2023-05-10T00:58:13;11.10;;;7.60;;
76962;SDS011;65902;51.452;7.198;2023-05-10T00:59:15;10.57;;;6.32;;
76962;SDS011;65902;51.452;7.198;2023-05-10T01:00:16;11.38;;;6.95;;
76962;SDS011;65902;51.452;7.198;2023-05-10T01:01:19;12.20;;;6.28;;
76962;SDS011;65902;51.452;7.198;2023-05-10T01:02:19;11.18;;;7.10;;
76962;SDS011;65902;51.452;7.198;2023-05-10T01:03:20;10.68;;;7.10;;
76962;SDS011;65902;51.452;7.198;2023-05-10T01:04:20;10.93;;;6.47;;
76962;SDS011;65902;51.452;7.198;2023-05-10T01:05:25;11.80;;;7.43;;
76962;SDS011;65902;51.452;7.198;2023-05-10T01:06:28;11.95;;;7.82;;
76962;SDS011;65902;51.452;7.198;2023-05-10T01:07:29;13.75;;;8.57;;
76962;SDS011;65902;51.452;7.198;2023-05-10T01:13:52;11.60;;;8.10;;
76962;SDS011;65902;51.452;7.198;2023-05-10T01:14:54;12.02;;;7.70;;
76962;SDS011;65902;51.452;7.198;2023-05-10T01:15:55;11.10;;;8.20;;
76962;SDS011;65902;51.452;7.198;2023-05-10T01:16:56;10.60;;;8.70;;
76962;SDS011;65902;51.452;7.198;2023-05-10T01:17:56;9.07;;;6.32;;
76962;SDS011;65902;51.452;7.198;2023-05-10T01:18:57;11.32;;;7.53;;
76962;SDS011;65902;51.452;7.198;2023-05-10T01:19:58;9.38;;;6.60;;
76962;SDS011;65902;51.452;7.198;2023-05-10T01:31:28;10.57;;;7.05;;
76962;SDS011;65902;51.452;7.198;2023-05-10T01:33:47;9.40;;;6.55;;
76962;SDS011;65902;51.452;7.198;2023-05-10T01:34:59;11.40;;;6.53;;
76962;SDS011;65902;51.452;7.198;2023-05-10T01:36:06;10.35;;;7.05;;
76962;SDS011;65902;51.452;7.198;2023-05-10T01:37:10;10.43;;;7.70;;
76962;SDS011;65902;51.452;7.198;2023-05-10T01:42:39;12.20;;;7.68;;
76962;SDS011;65902;51.452;7.198;2023-05-10T01:43:44;10.02;;;6.72;;
76962;SDS011;65902;51.452;7.198;2023-05-10T01:46:10;9.23;;;6.53;;
76962;SDS011;65902;51.452;7.198;2023-05-10T01:47:16;11.02;;;7.35;;
76962;SDS011;65902;51.452;7.198;2023-05-10T01:48:17;13.82;;;7.53;;
76962;SDS011;65902;51.452;7.198;2023-05-10T01:49:25;11.55;;;7.30;;
76962;SDS011;65902;51.452;7.198;2023-05-10T01:50:27;10.30;;;6.57;;
76962;SDS011;65902;51.452;7.198;2023-05-10T01:51:36;8.75;;;6.30;;
76962;SDS011;65902;51.452;7.198;2023-05-10T01:52:41;11.00;;;7.18;;
76962;SDS011;65902;51.452;7.198;2023-05-10T01:53:42;10.90;;;7.30;;
76962;SDS011;65902;51.452;7.198;2023-05-10T01:54:48;9.13;;;6.93;;
76962;SDS011;65902;51.452;7.198;2023-05-10T01:55:50;11.05;;;7.00;;
76962;SDS011;65902;51.452;7.198;2023-05-10T01:56:54;10.88;;;8.10;;
76962;SDS011;65902;51.452;7.198;2023-05-10T01:57:59;10.13;;;6.43;;
76962;SDS011;65902;51.452;7.198;2023-05-10T01:59:00;8.90;;;6.55;;
76962;SDS011;65902;51.452;7.198;2023-05-10T02:00:06;10.13;;;6.13;;
76962;SDS011;65902;51.452;7.198;2023-05-10T02:01:07;9.55;;;6.72;;
76962;SDS011;65902;51.452;7.198;2023-05-10T02:02:08;9.18;;;6.53;;
76962;SDS011;65902;51.452;7.198;2023-05-10T02:03:11;10.48;;;7.50;;
76962;SDS011;65902;51.452;7.198;2023-05-10T02:04:14;9.95;;;6.93;;
76962;SDS011;65902;51.452;7.198;2023-05-10T02:06:18;10.43;;;6.28;;
76962;SDS011;65902;51.452;7.198;2023-05-10T02:07:18;11.45;;;6.93;;
76962;SDS011;65902;51.452;7.198;2023-05-10T02:08:19;9.82;;;6.20;;
76962;SDS011;65902;51.452;7.198;2023-05-10T02:09:21;11.70;;;10.50;;
76962;SDS011;65902;51.452;7.198;2023-05-10T02:10:22;10.98;;;7.47;;
76962;SDS011;65902;51.452;7.198;2023-05-10T02:11:22;10.02;;;7.35;;
76962;SDS011;65902;51.452;7.198;2023-05-10T02:12:23;10.77;;;6.78;;
76962;SDS011;65902;51.452;7.198;2023-05-10T02:13:24;12.80;;;8.02;;
76962;SDS011;65902;51.452;7.198;2023-05-10T02:14:26;11.48;;;7.35;;
76962;SDS011;65902;51.452;7.198;2023-05-10T02:15:27;9.32;;;6.93;;
76962;SDS011;65902;51.452;7.198;2023-05-10T02:16:28;10.55;;;6.93;;
76962;SDS011;65902;51.452;7.198;2023-05-10T02:17:31;10.52;;;8.00;;
76962;SDS011;65902;51.452;7.198;2023-05-10T02:18:32;10.38;;;7.55;;
76962;SDS011;65902;51.452;7.198;2023-05-10T02:19:33;10.50;;;6.82;;
76962;SDS011;65902;51.452;7.198;2023-05-10T02:20:34;10.60;;;6.63;;
76962;SDS011;65902;51.452;7.198;2023-05-10T02:21:35;9.48;;;5.88;;
76962;SDS011;65902;51.452;7.198;2023-05-10T02:22:36;9.43;;;6.18;;
76962;SDS011;65902;51.452;7.198;2023-05-10T02:23:38;9.98;;;7.45;;
76962;SDS011;65902;51.452;7.198;2023-05-10T02:24:39;10.77;;;7.63;;
76962;SDS011;65902;51.452;7.198;2023-05-10T02:25:40;10.77;;;6.60;;
76962;SDS011;65902;51.452;7.198;2023-05-10T02:26:42;11.45;;;7.15;;
76962;SDS011;65902;51.452;7.198;2023-05-10T02:27:44;13.18;;;6.32;;
76962;SDS011;65902;51.452;7.198;2023-05-10T02:28:44;12.15;;;7.53;;
76962;SDS011;65902;51.452;7.198;2023-05-10T02:29:45;10.52;;;6.70;;
76962;SDS011;65902;51.452;7.198;2023-05-10T02:30:46;12.75;;;7.75;;
76962;SDS011;65902;51.452;7.198;2023-05-10T02:31:47;13.02;;;8.98;;
76962;SDS011;65902;51.452;7.198;2023-05-10T02:32:48;12.00;;;6.93;;
76962;SDS011;65902;51.452;7.198;2023-05-10T02:33:49;12.27;;;7.70;;
76962;SDS011;65902;51.452;7.198;2023-05-10T02:34:50;11.48;;;7.68;;
76962;SDS011;65902;51.452;7.198;2023-05-10T02:35:52;12.95;;;7.90;;
76962;SDS011;65902;51.452;7.198;2023-05-10T02:36:53;12.07;;;7.05;;
76962;SDS011;65902;51.452;7.198;2023-05-10T02:37:54;12.57;;;7.38;;
76962;SDS011;65902;51.452;7.198;2023-05-10T02:38:54;12.82;;;7.70;;
76962;SDS011;65902;51.452;7.198;2023-05-10T02:39:55;12.05;;;7.53;;
76962;SDS011;65902;51.452;7.198;2023-05-10T02:40:56;14.75;;;8.48;;
76962;SDS011;65902;51.452;7.198;2023-05-10T02:41:57;13.07;;;7.57;;
76962;SDS011;65902;51.452;7.198;2023-05-10T02:42:59;14.40;;;10.55;;
76962;SDS011;65902;51.452;7.198;2023-05-10T02:44:01;12.15;;;7.80;;
76962;SDS011;65902;51.452;7.198;2023-05-10T02:45:07;11.85;;;9.50;;
76962;SDS011;65902;51.452;7.198;2023-05-10T02:46:07;12.90;;;8.18;;
76962;SDS011;65902;51.452;7.198;2023-05-10T02:47:08;14.23;;;8.25;;
76962;SDS011;65902;51.452;7.198;2023-05-10T02:48:09;14.85;;;7.95;;
76962;SDS011;65902;51.452;7.198;2023-05-10T02:49:10;14.48;;;9.43;;
76962;SDS011;65902;51.452;7.198;2023-05-10T02:50:10;15.10;;;7.97;;
76962;SDS011;65902;51.452;7.198;2023-05-10T02:51:11;13.25;;;7.95;;
76962;SDS011;65902;51.452;7.198;2023-05-10T02:52:12;14.50;;;8.15;;
76962;SDS011;65902;51.452;7.198;2023-05-10T02:53:15;12.38;;;9.07;;
76962;SDS011;65902;51.452;7.198;2023-05-10T02:54:20;15.25;;;9.68;;
76962;SDS011;65902;51.452;7.198;2023-05-10T02:55:24;16.58;;;9.95;;
76962;SDS011;65902;51.452;7.198;2023-05-10T02:56:28;14.68;;;11.13;;
76962;SDS011;65902;51.452;7.198;2023-05-10T02:57:32;16.45;;;9.48;;
76962;SDS011;65902;51.452;7.198;2023-05-10T02:58:33;12.35;;;7.75;;
76962;SDS011;65902;51.452;7.198;2023-05-10T02:59:34;12.45;;;7.63;;
76962;SDS011;65902;51.452;7.198;2023-05-10T03:00:35;14.13;;;8.25;;
76962;SDS011;65902;51.452;7.198;2023-05-10T03:01:36;13.70;;;7.82;;
76962;SDS011;65902;51.452;7.198;2023-05-10T03:02:36;16.98;;;8.23;;
76962;SDS011;65902;51.452;7.198;2023-05-10T03:03:39;14.30;;;8.57;;
76962;SDS011;65902;51.452;7.198;2023-05-10T03:04:40;14.60;;;7.97;;
76962;SDS011;65902;51.452;7.198;2023-05-10T03:05:40;13.52;;;7.65;;
76962;SDS011;65902;51.452;7.198;2023-05-10T03:06:41;15.90;;;8.95;;
76962;SDS011;65902;51.452;7.198;2023-05-10T03:07:42;14.10;;;8.15;;
76962;SDS011;65902;51.452;7.198;2023-05-10T03:08:43;15.48;;;8.65;;
76962;SDS011;65902;51.452;7.198;2023-05-10T03:09:44;11.65;;;7.30;;
76962;SDS011;65902;51.452;7.198;2023-05-10T03:10:48;16.15;;;8.38;;
76962;SDS011;65902;51.452;7.198;2023-05-10T03:13:56;14.93;;;8.48;;
76962;SDS011;65902;51.452;7.198;2023-05-10T03:16:25;16.38;;;8.10;;
76962;SDS011;65902;51.452;7.198;2023-05-10T03:17:36;12.75;;;7.93;;
76962;SDS011;65902;51.452;7.198;2023-05-10T03:18:42;13.63;;;7.55;;
76962;SDS011;65902;51.452;7.198;2023-05-10T03:19:47;13.60;;;7.88;;
76962;SDS011;65902;51.452;7.198;2023-05-10T03:20:53;12.35;;;7.40;;
76962;SDS011;65902;51.452;7.198;2023-05-10T03:21:57;13.07;;;7.75;;
76962;SDS011;65902;51.452;7.198;2023-05-10T03:24:06;12.20;;;7.68;;
76962;SDS011;65902;51.452;7.198;2023-05-10T03:25:07;13.50;;;8.75;;
76962;SDS011;65902;51.452;7.198;2023-05-10T03:26:09;14.32;;;8.85;;
76962;SDS011;65902;51.452;7.198;2023-05-10T03:27:10;16.02;;;10.30;;
76962;SDS011;65902;51.452;7.198;2023-05-10T03:28:11;13.90;;;8.40;;
76962;SDS011;65902;51.452;7.198;2023-05-10T03:29:12;17.77;;;8.05;;
76962;SDS011;65902;51.452;7.198;2023-05-10T03:30:14;14.63;;;8.25;;
76962;SDS011;65902;51.452;7.198;2023-05-10T03:31:14;14.50;;;9.43;;
76962;SDS011;65902;51.452;7.198;2023-05-10T03:32:15;13.50;;;7.72;;
76962;SDS011;65902;51.452;7.198;2023-05-10T03:33:15;16.13;;;8.48;;
76962;SDS011;65902;51.452;7.198;2023-05-10T03:34:16;15.68;;;8.50;;
76962;SDS011;65902;51.452;7.198;2023-05-10T03:35:17;15.25;;;7.72;;
76962;SDS011;65902;51.452;7.198;2023-05-10T03:36:18;14.90;;;8.38;;
76962;SDS011;65902;51.452;7.198;2023-05-10T03:37:18;13.43;;;9.02;;
76962;SDS011;65902;51.452;7.198;2023-05-10T03:38:19;16.52;;;9.38;;
76962;SDS011;65902;51.452;7.198;2023-05-10T03:39:20;17.90;;;9.00;;
76962;SDS011;65902;51.452;7.198;2023-05-10T03:40:21;16.70;;;9.23;;
76962;SDS011;65902;51.452;7.198;2023-05-10T03:41:23;17.88;;;9.40;;
76962;SDS011;65902;51.452;7.198;2023-05-10T03:42:23;20.80;;;9.70;;
76962;SDS011;65902;51.452;7.198;2023-05-10T03:43:24;19.73;;;10.18;;
76962;SDS011;65902;51.452;7.198;2023-05-10T03:44:24;17.80;;;12.13;;
76962;SDS011;65902;51.452;7.198;2023-05-10T03:45:25;19.75;;;10.07;;
76962;SDS011;65902;51.452;7.198;2023-05-10T03:46:25;19.52;;;10.00;;
76962;SDS011;65902;51.452;7.198;2023-05-10T03:47:26;17.25;;;10.43;;
76962;SDS011;65902;51.452;7.198;2023-05-10T03:48:26;21.35;;;11.18;;
76962;SDS011;65902;51.452;7.198;2023-05-10T03:49:27;19.77;;;11.60;;
76962;SDS011;65902;51.452;7.198;2023-05-10T03:50:27;22.58;;;11.52;;
76962;SDS011;65902;51.452;7.198;2023-05-10T03:51:28;22.60;;;15.02;;
76962;SDS011;65902;51.452;7.198;2023-05-10T03:52:28;19.33;;;12.43;;
76962;SDS011;65902;51.452;7.198;2023-05-10T03:53:29;19.15;;;12.25;;
76962;SDS011;65902;51.452;7.198;2023-05-10T03:54:29;20.33;;;11.93;;
76962;SDS011;65902;51.452;7.198;2023-05-10T03:55:30;25.85;;;12.73;;
76962;SDS011;65902;51.452;7.198;2023-05-10T03:56:34;21.52;;;10.85;;
76962;SDS011;65902;51.452;7.198;2023-05-10T03:57:35;20.27;;;11.55;;
76962;SDS011;65902;51.452;7.198;2023-05-10T03:58:35;24.10;;;12.18;;
76962;SDS011;65902;51.452;7.198;2023-05-10T03:59:36;23.35;;;13.00;;
76962;SDS011;65902;51.452;7.198;2023-05-10T04:00:36;26.55;;;13.30;;
76962;SDS011;65902;51.452;7.198;2023-05-10T04:01:37;24.23;;;13.50;;
76962;SDS011;65902;51.452;7.198;2023-05-10T04:02:37;21.38;;;12.23;;
76962;SDS011;65902;51.452;7.198;2023-05-10T04:03:38;23.60;;;12.85;;
76962;SDS011;65902;51.452;7.198;2023-05-10T04:04:38;24.88;;;14.52;;
76962;SDS011;65902;51.452;7.198;2023-05-10T04:05:39;19.98;;;11.20;;
76962;SDS011;65902;51.452;7.198;2023-05-10T04:06:40;24.45;;;13.02;;
76962;SDS011;65902;51.452;7.198;2023-05-10T04:07:40;19.00;;;12.50;;
76962;SDS011;65902;51.452;7.198;2023-05-10T04:08:40;23.77;;;12.57;;
76962;SDS011;65902;51.452;7.198;2023-05-10T04:09:41;23.25;;;12.27;;
76962;SDS011;65902;51.452;7.198;2023-05-10T04:10:41;29.00;;;14.73;;
76962;SDS011;65902;51.452;7.198;2023-05-10T04:11:42;22.27;;;12.07;;
76962;SDS011;65902;51.452;7.198;2023-05-10T04:12:43;24.30;;;12.75;;
76962;SDS011;65902;51.452;7.198;2023-05-10T04:13:43;28.02;;;13.52;;
76962;SDS011;65902;51.452;7.198;2023-05-10T04:14:43;20.27;;;11.60;;
76962;SDS011;65902;51.452;7.198;2023-05-10T04:15:44;23.48;;;12.65;;
76962;SDS011;65902;51.452;7.198;2023-05-10T04:16:45;23.55;;;13.27;;
76962;SDS011;65902;51.452;7.198;2023-05-10T04:17:45;25.85;;;12.60;;
76962;SDS011;65902;51.452;7.198;2023-05-10T04:18:46;21.55;;;12.30;;
76962;SDS011;65902;51.452;7.198;2023-05-10T04:19:46;26.35;;;13.50;;
76962;SDS011;65902;51.452;7.198;2023-05-10T04:20:47;19.02;;;10.88;;
76962;SDS011;65902;51.452;7.198;2023-05-10T04:21:48;24.55;;;12.52;;
76962;SDS011;65902;51.452;7.198;2023-05-10T04:22:48;25.05;;;13.27;;
76962;SDS011;65902;51.452;7.198;2023-05-10T04:23:48;25.92;;;12.75;;
76962;SDS011;65902;51.452;7.198;2023-05-10T04:24:49;22.88;;;12.95;;
76962;SDS011;65902;51.452;7.198;2023-05-10T04:25:49;22.40;;;11.75;;
76962;SDS011;65902;51.452;7.198;2023-05-10T04:26:50;18.67;;;10.45;;
76962;SDS011;65902;51.452;7.198;2023-05-10T04:27:53;20.58;;;12.65;;
76962;SDS011;65902;51.452;7.198;2023-05-10T04:28:53;23.13;;;12.07;;
76962;SDS011;65902;51.452;7.198;2023-05-10T04:29:53;23.65;;;13.70;;
76962;SDS011;65902;51.452;7.198;2023-05-10T04:31:00;23.65;;;11.65;;
76962;SDS011;65902;51.452;7.198;2023-05-10T04:32:01;17.80;;;10.18;;
76962;SDS011;65902;51.452;7.198;2023-05-10T04:33:03;24.35;;;13.23;;
76962;SDS011;65902;51.452;7.198;2023-05-10T04:34:14;24.98;;;13.20;;
76962;SDS011;65902;51.452;7.198;2023-05-10T04:35:14;26.55;;;13.18;;
76962;SDS011;65902;51.452;7.198;2023-05-10T04:36:15;25.67;;;13.43;;
76962;SDS011;65902;51.452;7.198;2023-05-10T04:37:16;22.55;;;11.60;;
76962;SDS011;65902;51.452;7.198;2023-05-10T04:38:16;26.83;;;13.55;;
76962;SDS011;65902;51.452;7.198;2023-05-10T04:39:16;22.52;;;12.93;;
76962;SDS011;65902;51.452;7.198;2023-05-10T04:40:17;25.58;;;13.48;;
76962;SDS011;65902;51.452;7.198;2023-05-10T04:41:17;23.73;;;13.65;;
76962;SDS011;65902;51.452;7.198;2023-05-10T04:42:18;28.73;;;14.48;;
76962;SDS011;65902;51.452;7.198;2023-05-10T04:43:19;26.65;;;14.02;;
76962;SDS011;65902;51.452;7.198;2023-05-10T04:44:20;25.70;;;13.13;;
76962;SDS011;65902;51.452;7.198;2023-05-10T04:45:20;28.05;;;14.27;;
76962;SDS011;65902;51.452;7.198;2023-05-10T04:46:21;24.10;;;14.50;;
76962;SDS011;65902;51.452;7.198;2023-05-10T04:47:21;28.38;;;18.23;;
76962;SDS011;65902;51.452;7.198;2023-05-10T04:48:22;26.73;;;12.65;;
76962;SDS011;65902;51.452;7.198;2023-05-10T04:49:23;21.00;;;11.02;;
76962;SDS011;65902;51.452;7.198;2023-05-10T04:50:23;27.13;;;16.13;;
76962;SDS011;65902;51.452;7.198;2023-05-10T04:51:23;20.88;;;13.55;;
76962;SDS011;65902;51.452;7.198;2023-05-10T04:52:24;25.90;;;13.05;;
76962;SDS011;65902;51.452;7.198;2023-05-10T04:53:25;30.02;;;15.68;;
76962;SDS011;65902;51.452;7.198;2023-05-10T04:54:25;28.45;;;12.90;;
76962;SDS011;65902;51.452;7.198;2023-05-10T04:55:26;25.70;;;13.35;;
76962;SDS011;65902;51.452;7.198;2023-05-10T04:56:27;30.30;;;14.77;;
76962;SDS011;65902;51.452;7.198;2023-05-10T04:57:27;30.35;;;16.95;;
76962;SDS011;65902;51.452;7.198;2023-05-10T04:58:27;27.77;;;14.10;;
76962;SDS011;65902;51.452;7.198;2023-05-10T04:59:28;26.08;;;14.02;;
76962;SDS011;65902;51.452;7.198;2023-05-10T05:00:29;29.10;;;15.55;;
76962;SDS011;65902;51.452;7.198;2023-05-10T05:01:29;29.40;;;15.50;;
76962;SDS011;65902;51.452;7.198;2023-05-10T05:02:29;28.00;;;14.43;;
76962;SDS011;65902;51.452;7.198;2023-05-10T05:03:30;28.55;;;16.67;;
76962;SDS011;65902;51.452;7.198;2023-05-10T05:04:31;31.05;;;16.27;;
76962;SDS011;65902;51.452;7.198;2023-05-10T05:05:32;32.42;;;14.50;;
76962;SDS011;65902;51.452;7.198;2023-05-10T05:06:32;30.20;;;15.88;;
76962;SDS011;65902;51.452;7.198;2023-05-10T05:07:33;35.70;;;16.85;;
76962;SDS011;65902;51.452;7.198;2023-05-10T05:08:33;30.27;;;15.32;;
76962;SDS011;65902;51.452;7.198;2023-05-10T05:09:34;31.13;;;16.38;;
76962;SDS011;65902;51.452;7.198;2023-05-10T05:10:34;31.88;;;16.70;;
76962;SDS011;65902;51.452;7.198;2023-05-10T05:11:37;34.67;;;16.88;;
76962;SDS011;65902;51.452;7.198;2023-05-10T05:12:37;34.90;;;19.00;;
76962;SDS011;65902;51.452;7.198;2023-05-10T05:13:40;28.40;;;14.82;;
76962;SDS011;65902;51.452;7.198;2023-05-10T05:14:41;30.13;;;17.80;;
76962;SDS011;65902;51.452;7.198;2023-05-10T05:15:41;32.50;;;19.02;;
76962;SDS011;65902;51.452;7.198;2023-05-10T05:16:41;35.10;;;16.13;;
76962;SDS011;65902;51.452;7.198;2023-05-10T05:17:46;33.72;;;17.67;;
76962;SDS011;65902;51.452;7.198;2023-05-10T05:18:49;29.35;;;16.75;;
76962;SDS011;65902;51.452;7.198;2023-05-10T05:19:52;32.67;;;18.08;;
76962;SDS011;65902;51.452;7.198;2023-05-10T05:20:53;31.20;;;15.93;;
76962;SDS011;65902;51.452;7.198;2023-05-10T05:21:55;33.88;;;17.77;;
76962;SDS011;65902;51.452;7.198;2023-05-10T05:22:56;33.85;;;18.33;;
76962;SDS011;65902;51.452;7.198;2023-05-10T05:23:58;32.92;;;17.27;;
76962;SDS011;65902;51.452;7.198;2023-05-10T05:24:59;34.63;;;17.65;;
76962;SDS011;65902;51.452;7.198;2023-05-10T05:26:01;34.30;;;17.23;;
76962;SDS011;65902;51.452;7.198;2023-05-10T05:27:02;35.65;;;19.02;;
76962;SDS011;65902;51.452;7.198;2023-05-10T05:28:02;38.13;;;16.80;;
76962;SDS011;65902;51.452;7.198;2023-05-10T05:29:02;36.10;;;16.88;;
76962;SDS011;65902;51.452;7.198;2023-05-10T05:30:03;33.08;;;16.80;;
76962;SDS011;65902;51.452;7.198;2023-05-10T05:32:07;33.67;;;17.20;;
76962;SDS011;65902;51.452;7.198;2023-05-10T05:33:09;31.98;;;17.40;;
76962;SDS011;65902;51.452;7.198;2023-05-10T05:34:09;33.97;;;17.33;;
76962;SDS011;65902;51.452;7.198;2023-05-10T05:35:11;33.17;;;17.83;;
76962;SDS011;65902;51.452;7.198;2023-05-10T05:36:14;34.22;;;16.60;;
76962;SDS011;65902;51.452;7.198;2023-05-10T05:37:15;32.22;;;16.73;;
76962;SDS011;65902;51.452;7.198;2023-05-10T05:38:16;32.90;;;18.08;;
76962;SDS011;65902;51.452;7.198;2023-05-10T05:39:17;37.22;;;17.35;;
76962;SDS011;65902;51.452;7.198;2023-05-10T05:40:18;35.10;;;20.63;;
76962;SDS011;65902;51.452;7.198;2023-05-10T05:41:18;35.55;;;17.00;;
76962;SDS011;65902;51.452;7.198;2023-05-10T05:42:19;35.53;;;17.05;;
76962;SDS011;65902;51.452;7.198;2023-05-10T05:43:20;36.08;;;20.73;;
76962;SDS011;65902;51.452;7.198;2023-05-10T05:44:20;35.50;;;18.38;;
76962;SDS011;65902;51.452;7.198;2023-05-10T05:45:20;35.42;;;18.52;;
76962;SDS011;65902;51.452;7.198;2023-05-10T05:46:23;38.75;;;19.50;;
76962;SDS011;65902;51.452;7.198;2023-05-10T05:47:24;37.35;;;19.52;;
76962;SDS011;65902;51.452;7.198;2023-05-10T05:48:25;41.25;;;18.23;;
76962;SDS011;65902;51.452;7.198;2023-05-10T05:49:25;34.95;;;17.42;;
76962;SDS011;65902;51.452;7.198;2023-05-10T05:50:25;36.25;;;22.55;;
76962;SDS011;65902;51.452;7.198;2023-05-10T05:51:26;38.45;;;18.73;;
76962;SDS011;65902;51.452;7.198;2023-05-10T05:52:29;38.10;;;19.90;;
76962;SDS011;65902;51.452;7.198;2023-05-10T05:53:30;34.20;;;18.63;;
76962;SDS011;65902;51.452;7.198;2023-05-10T05:54:31;37.00;;;19.38;;
76962;SDS011;65902;51.452;7.198;2023-05-10T05:55:33;35.85;;;19.30;;
76962;SDS011;65902;51.452;7.198;2023-05-10T05:56:36;39.10;;;18.10;;
76962;SDS011;65902;51.452;7.198;2023-05-10T05:57:38;41.97;;;21.45;;
76962;SDS011;65902;51.452;7.198;2023-05-10T05:58:39;37.58;;;20.02;;
76962;SDS011;65902;51.452;7.198;2023-05-10T05:59:39;36.35;;;19.40;;
76962;SDS011;65902;51.452;7.198;2023-05-10T06:00:44;35.13;;;20.00;;
76962;SDS011;65902;51.452;7.198;2023-05-10T06:01:45;36.28;;;19.33;;
76962;SDS011;65902;51.452;7.198;2023-05-10T06:02:47;34.67;;;19.55;;
76962;SDS011;65902;51.452;7.198;2023-05-10T06:03:50;35.65;;;19.45;;
76962;SDS011;65902;51.452;7.198;2023-05-10T06:04:51;33.80;;;19.38;;
76962;SDS011;65902;51.452;7.198;2023-05-10T06:15:34;34.03;;;18.75;;
76962;SDS011;65902;51.452;7.198;2023-05-10T06:16:35;34.78;;;18.80;;
76962;SDS011;65902;51.452;7.198;2023-05-10T06:17:36;36.72;;;22.02;;
76962;SDS011;65902;51.452;7.198;2023-05-10T06:21:20;34.97;;;18.90;;
76962;SDS011;65902;51.452;7.198;2023-05-10T06:22:44;30.52;;;17.20;;
76962;SDS011;65902;51.452;7.198;2023-05-10T06:23:50;36.42;;;18.48;;
76962;SDS011;65902;51.452;7.198;2023-05-10T06:24:56;34.30;;;18.70;;
76962;SDS011;65902;51.452;7.198;2023-05-10T06:25:57;34.25;;;17.25;;
76962;SDS011;65902;51.452;7.198;2023-05-10T06:26:58;33.97;;;18.13;;
76962;SDS011;65902;51.452;7.198;2023-05-10T06:29:19;34.63;;;19.23;;
76962;SDS011;65902;51.452;7.198;2023-05-10T06:30:20;32.05;;;18.23;;
76962;SDS011;65902;51.452;7.198;2023-05-10T06:31:23;33.35;;;18.77;;
76962;SDS011;65902;51.452;7.198;2023-05-10T06:32:27;34.22;;;19.73;;
76962;SDS011;65902;51.452;7.198;2023-05-10T06:33:42;33.03;;;19.10;;
76962;SDS011;65902;51.452;7.198;2023-05-10T06:34:43;36.67;;;19.55;;
76962;SDS011;65902;51.452;7.198;2023-05-10T06:35:47;31.20;;;18.85;;
76962;SDS011;65902;51.452;7.198;2023-05-10T06:36:48;36.53;;;20.58;;
76962;SDS011;65902;51.452;7.198;2023-05-10T06:37:54;35.22;;;20.50;;
76962;SDS011;65902;51.452;7.198;2023-05-10T06:38:55;35.47;;;20.02;;
76962;SDS011;65902;51.452;7.198;2023-05-10T06:39:55;34.70;;;22.50;;
76962;SDS011;65902;51.452;7.198;2023-05-10T06:40:56;33.80;;;18.88;;
76962;SDS011;65902;51.452;7.198;2023-05-10T06:41:56;38.60;;;19.20;;
76962;SDS011;65902;51.452;7.198;2023-05-10T06:42:57;34.13;;;19.55;;
76962;SDS011;65902;51.452;7.198;2023-05-10T06:45:01;35.65;;;18.98;;
76962;SDS011;65902;51.452;7.198;2023-05-10T06:46:05;37.72;;;20.20;;
76962;SDS011;65902;51.452;7.198;2023-05-10T06:47:07;33.85;;;18.95;;
76962;SDS011;65902;51.452;7.198;2023-05-10T06:48:15;36.35;;;19.98;;